createdAt,value
2022-08-18T00:00:27.970Z,21.63
2022-08-18T00:01:27.950Z,21.52
2022-08-18T00:02:30.156Z,21.48
2022-08-18T00:03:56.033Z,21.52
2022-08-18T00:04:35.831Z,21.59
2022-08-18T00:05:30.630Z,21.49
2022-08-18T00:06:28.445Z,21.58
2022-08-18T00:07:27.753Z,21.48
2022-08-18T00:08:27.764Z,21.51
2022-08-18T00:09:31.989Z,21.49
2022-08-18T00:10:28.843Z,21.51
2022-08-18T00:11:27.796Z,21.42
2022-08-18T00:12:28.748Z,21.36
2022-08-18T00:13:27.693Z,21.37
2022-08-18T00:14:27.629Z,21.45
2022-08-18T00:15:27.701Z,21.37
2022-08-18T00:16:27.644Z,21.36
2022-08-18T00:17:27.771Z,21.33
2022-08-18T00:18:27.628Z,21.34
2022-08-18T00:19:43.537Z,21.36
2022-08-18T00:20:28.588Z,21.43
2022-08-18T00:21:27.584Z,21.30
2022-08-18T00:22:27.557Z,21.31
2022-08-18T00:23:27.539Z,21.26
2022-08-18T00:24:27.579Z,21.31
2022-08-18T00:25:27.543Z,21.36
2022-08-18T00:26:27.427Z,21.30
2022-08-18T00:27:28.749Z,21.30
2022-08-18T00:28:27.445Z,21.22
2022-08-18T00:29:27.509Z,21.24
2022-08-18T00:30:27.567Z,21.26
2022-08-18T00:31:27.465Z,21.22
2022-08-18T00:32:27.487Z,21.15
2022-08-18T00:33:27.427Z,21.22
2022-08-18T00:34:27.334Z,21.15
2022-08-18T00:35:28.968Z,21.22
2022-08-18T00:36:27.313Z,21.21
2022-08-18T00:37:27.350Z,21.13
2022-08-18T00:38:27.358Z,21.15
2022-08-18T00:39:27.391Z,21.15
2022-08-18T00:40:29.343Z,21.12
2022-08-18T00:41:27.229Z,21.12
2022-08-18T00:42:30.646Z,21.12
2022-08-18T00:43:27.144Z,21.16
2022-08-18T00:44:27.170Z,21.12
2022-08-18T00:45:27.273Z,21.05
2022-08-18T00:46:27.120Z,21.06
2022-08-18T00:47:41.522Z,21.06
2022-08-18T00:48:28.191Z,21.00
2022-08-18T00:49:27.167Z,20.96
2022-08-18T00:50:27.183Z,20.98
2022-08-18T00:51:27.070Z,20.96
2022-08-18T00:52:27.108Z,20.87
2022-08-18T00:53:27.104Z,20.85
2022-08-18T00:54:26.964Z,20.90
2022-08-18T00:55:27.069Z,20.88
2022-08-18T00:56:26.999Z,20.79
2022-08-18T00:57:26.903Z,20.81
2022-08-18T00:58:26.947Z,20.78
2022-08-18T00:59:26.884Z,20.82
2022-08-18T01:00:27.128Z,20.81
2022-08-18T01:01:26.967Z,20.75
2022-08-18T01:02:26.862Z,20.73
2022-08-18T01:03:26.872Z,20.81
2022-08-18T01:04:26.789Z,20.66
2022-08-18T01:05:26.818Z,20.78
2022-08-18T01:06:26.758Z,20.79
2022-08-18T01:07:26.743Z,20.85
2022-08-18T01:08:28.933Z,20.76
2022-08-18T01:09:26.703Z,20.75
2022-08-18T01:10:26.777Z,20.78
2022-08-18T01:11:26.720Z,20.69
2022-08-18T01:12:44.334Z,20.71
2022-08-18T01:13:27.745Z,20.73
2022-08-18T01:14:26.781Z,20.78
2022-08-18T01:15:28.506Z,20.73
2022-08-18T01:16:26.651Z,20.78
2022-08-18T01:17:26.602Z,20.75
2022-08-18T01:18:26.611Z,20.76
2022-08-18T01:19:26.595Z,20.76
2022-08-18T01:20:26.601Z,20.76
2022-08-18T01:21:26.551Z,20.69
2022-08-18T01:22:26.581Z,20.73
2022-08-18T01:23:26.540Z,20.66
2022-08-18T01:24:26.552Z,20.69
2022-08-18T01:25:26.581Z,20.63
2022-08-18T01:26:26.510Z,20.66
2022-08-18T01:27:26.411Z,20.66
2022-08-18T01:28:26.490Z,20.57
2022-08-18T01:29:26.473Z,20.58
2022-08-18T01:30:26.489Z,20.56
2022-08-18T01:31:26.439Z,20.58
2022-08-18T01:32:26.357Z,20.51
2022-08-18T01:33:26.730Z,20.54
2022-08-18T01:34:26.360Z,20.46
2022-08-18T01:35:26.358Z,20.51
2022-08-18T01:36:26.258Z,20.53
2022-08-18T01:37:26.293Z,20.41
2022-08-18T01:38:26.234Z,20.46
2022-08-18T01:41:11.215Z,20.33
2022-08-18T01:41:23.601Z,20.48
2022-08-18T01:41:30.680Z,20.40
2022-08-18T01:42:27.322Z,20.37
2022-08-18T01:43:26.301Z,20.41
2022-08-18T01:44:26.180Z,20.40
2022-08-18T01:45:26.353Z,20.44
2022-08-18T01:46:26.131Z,20.48
2022-08-18T01:47:26.221Z,20.38
2022-08-18T01:48:26.098Z,20.34
2022-08-18T01:49:26.100Z,20.38
2022-08-18T01:50:26.191Z,20.42
2022-08-18T01:51:38.023Z,20.41
2022-08-18T01:52:27.131Z,20.40
2022-08-18T01:53:26.122Z,20.42
2022-08-18T01:54:26.051Z,20.35
2022-08-18T01:55:26.028Z,20.31
2022-08-18T01:56:26.119Z,20.33
2022-08-18T01:57:25.900Z,20.37
2022-08-18T01:58:28.837Z,20.40
2022-08-18T01:59:26.939Z,20.42
2022-08-18T02:00:26.005Z,20.37
2022-08-18T02:01:32.980Z,20.37
2022-08-18T02:02:26.966Z,20.33
2022-08-18T02:03:25.840Z,20.35
2022-08-18T02:04:38.097Z,20.40
2022-08-18T02:05:27.901Z,20.34
2022-08-18T02:06:32.145Z,20.27
2022-08-18T02:07:35.019Z,20.31
2022-08-18T02:08:28.082Z,20.35
2022-08-18T02:09:25.801Z,20.20
2022-08-18T02:10:25.875Z,20.22
2022-08-18T02:11:25.711Z,20.16
2022-08-18T02:12:25.735Z,20.25
2022-08-18T02:13:25.735Z,20.23
2022-08-18T02:14:27.270Z,20.27
2022-08-18T02:15:25.617Z,20.23
2022-08-18T02:16:25.653Z,20.17
2022-08-18T02:17:25.561Z,20.07
2022-08-18T02:18:41.430Z,20.15
2022-08-18T02:19:26.573Z,20.16
2022-08-18T02:20:25.652Z,20.08
2022-08-18T02:21:25.593Z,20.08
2022-08-18T02:22:25.745Z,20.17
2022-08-18T02:23:25.523Z,20.20
2022-08-18T02:24:25.444Z,20.22
2022-08-18T02:25:25.516Z,20.16
2022-08-18T02:26:25.548Z,20.22
2022-08-18T02:27:25.395Z,20.22
2022-08-18T02:28:30.537Z,20.22
2022-08-18T02:29:27.406Z,20.20
2022-08-18T02:30:25.371Z,20.23
2022-08-18T02:31:25.326Z,20.23
2022-08-18T02:32:25.523Z,20.23
2022-08-18T02:33:25.397Z,20.19
2022-08-18T02:34:25.387Z,20.20
2022-08-18T02:35:25.469Z,20.23
2022-08-18T02:36:25.582Z,20.23
2022-08-18T02:37:25.271Z,20.30
2022-08-18T02:38:25.257Z,20.19
2022-08-18T02:39:25.334Z,20.22
2022-08-18T02:40:25.396Z,20.22
2022-08-18T02:41:25.245Z,20.13
2022-08-18T02:42:25.337Z,20.19
2022-08-18T02:43:25.205Z,20.08
2022-08-18T02:44:25.105Z,20.15
2022-08-18T02:45:25.216Z,20.22
2022-08-18T02:46:29.968Z,20.10
2022-08-18T02:47:30.247Z,20.10
2022-08-18T02:48:26.141Z,20.10
2022-08-18T02:49:25.067Z,20.12
2022-08-18T02:50:25.099Z,20.13
2022-08-18T02:51:26.034Z,20.01
2022-08-18T02:52:25.153Z,20.10
2022-08-18T02:53:25.038Z,20.04
2022-08-18T02:54:24.923Z,20.04
2022-08-18T02:55:25.041Z,20.02
2022-08-18T02:56:40.478Z,20.12
2022-08-18T02:57:25.902Z,20.08
2022-08-18T02:58:24.906Z,20.13
2022-08-18T02:59:24.947Z,20.05
2022-08-18T03:00:24.920Z,20.02
2022-08-18T03:01:24.904Z,20.12
2022-08-18T03:02:25.000Z,20.10
2022-08-18T03:03:24.780Z,20.04
2022-08-18T03:04:28.831Z,20.02
2022-08-18T03:05:25.829Z,20.12
2022-08-18T03:06:24.724Z,20.07
2022-08-18T03:07:24.704Z,20.04
2022-08-18T03:08:24.828Z,19.90
2022-08-18T03:09:24.682Z,20.00
2022-08-18T03:10:32.565Z,20.01
2022-08-18T03:11:25.660Z,19.94
2022-08-18T03:12:24.761Z,19.92
2022-08-18T03:13:24.765Z,19.98
2022-08-18T03:14:24.650Z,19.87
2022-08-18T03:15:26.610Z,19.89
2022-08-18T03:16:24.566Z,19.90
2022-08-18T03:17:24.600Z,19.83
2022-08-18T03:18:24.575Z,19.94
2022-08-18T03:19:24.557Z,19.89
2022-08-18T03:20:30.231Z,19.98
2022-08-18T03:21:25.531Z,19.98
2022-08-18T03:22:28.062Z,19.89
2022-08-18T03:23:30.246Z,19.89
2022-08-18T03:24:25.591Z,19.89
2022-08-18T03:25:24.539Z,19.83
2022-08-18T03:26:24.449Z,19.86
2022-08-18T03:27:24.438Z,19.89
2022-08-18T03:28:24.425Z,19.90
2022-08-18T03:29:27.903Z,19.94
2022-08-18T03:30:26.406Z,19.87
2022-08-18T03:31:24.463Z,19.83
2022-08-18T03:32:24.485Z,19.94
2022-08-18T03:33:24.422Z,19.89
2022-08-18T03:34:24.435Z,19.95
2022-08-18T03:35:24.403Z,19.94
2022-08-18T03:36:24.456Z,19.94
2022-08-18T03:37:24.201Z,19.92
2022-08-18T03:38:24.263Z,19.92
2022-08-18T03:39:24.276Z,19.85
2022-08-18T03:40:24.238Z,19.87
2022-08-18T03:41:59.061Z,19.89
2022-08-18T03:42:25.328Z,19.80
2022-08-18T03:43:50.708Z,19.79
2022-08-18T03:44:25.190Z,19.83
2022-08-18T03:45:24.159Z,19.92
2022-08-18T03:46:24.187Z,19.85
2022-08-18T03:47:24.100Z,19.87
2022-08-18T03:48:24.083Z,19.87
2022-08-18T03:49:24.124Z,19.83
2022-08-18T03:50:24.090Z,19.97
2022-08-18T03:51:24.041Z,19.85
2022-08-18T03:52:24.055Z,19.86
2022-08-18T03:53:24.007Z,19.92
2022-08-18T03:54:24.032Z,19.92
2022-08-18T03:55:24.050Z,19.85
2022-08-18T03:56:23.995Z,19.82
2022-08-18T03:57:24.071Z,19.87
2022-08-18T03:58:24.008Z,19.85
2022-08-18T03:59:23.959Z,19.89
2022-08-18T04:00:23.865Z,19.95
2022-08-18T04:01:25.729Z,19.94
2022-08-18T04:02:23.929Z,19.87
2022-08-18T04:03:23.767Z,19.82
2022-08-18T04:04:23.884Z,19.89
2022-08-18T04:05:23.776Z,19.85
2022-08-18T04:06:30.325Z,19.79
2022-08-18T04:07:24.816Z,19.90
2022-08-18T04:08:23.789Z,19.82
2022-08-18T04:09:23.778Z,19.78
2022-08-18T04:10:23.679Z,19.85
2022-08-18T04:11:23.689Z,19.79
2022-08-18T04:12:24.336Z,19.86
2022-08-18T04:13:23.647Z,19.85
2022-08-18T04:14:23.601Z,19.85
2022-08-18T04:15:23.662Z,19.86
2022-08-18T04:16:23.632Z,19.82
2022-08-18T04:17:23.640Z,19.83
2022-08-18T04:18:23.624Z,19.82
2022-08-18T04:19:27.175Z,19.83
2022-08-18T04:20:23.716Z,19.76
2022-08-18T04:21:23.529Z,19.86
2022-08-18T04:22:23.493Z,19.79
2022-08-18T04:23:23.523Z,19.82
2022-08-18T04:24:23.473Z,19.79
2022-08-18T04:25:23.504Z,19.75
2022-08-18T04:26:23.429Z,19.80
2022-08-18T04:27:23.546Z,19.85
2022-08-18T04:28:23.394Z,19.76
2022-08-18T04:29:23.454Z,19.85
2022-08-18T04:30:23.440Z,19.80
2022-08-18T04:31:23.397Z,19.80
2022-08-18T04:32:23.413Z,19.83
2022-08-18T04:33:24.326Z,19.76
2022-08-18T04:34:23.349Z,19.86
2022-08-18T04:35:24.378Z,19.85
2022-08-18T04:36:23.297Z,19.86
2022-08-18T04:37:23.303Z,19.87
2022-08-18T04:38:23.288Z,19.89
2022-08-18T04:39:23.281Z,19.86
2022-08-18T04:40:25.314Z,19.95
2022-08-18T04:41:24.262Z,19.87
2022-08-18T04:42:23.336Z,19.83
2022-08-18T04:43:23.145Z,19.86
2022-08-18T04:44:23.222Z,19.92
2022-08-18T04:45:23.055Z,19.80
2022-08-18T04:46:24.193Z,19.97
2022-08-18T04:47:23.026Z,19.80
2022-08-18T04:48:23.002Z,19.92
2022-08-18T04:49:23.085Z,19.85
2022-08-18T04:50:22.997Z,19.98
2022-08-18T04:52:37.604Z,19.97
2022-08-18T04:52:39.740Z,20.04
2022-08-18T04:53:23.970Z,19.97
2022-08-18T04:54:22.956Z,20.02
2022-08-18T04:55:22.910Z,20.05
2022-08-18T04:56:22.868Z,20.00
2022-08-18T04:57:22.859Z,20.00
2022-08-18T04:58:22.837Z,20.04
2022-08-18T04:59:22.875Z,20.02
2022-08-18T05:00:22.892Z,20.04
2022-08-18T05:01:22.814Z,20.12
2022-08-18T05:02:22.866Z,20.12
2022-08-18T05:03:22.761Z,20.08
2022-08-18T05:04:22.863Z,20.13
2022-08-18T05:05:22.824Z,20.13
2022-08-18T05:06:22.813Z,20.10
2022-08-18T05:07:22.802Z,20.15
2022-08-18T05:08:22.782Z,20.13
2022-08-18T05:09:23.342Z,20.20
2022-08-18T05:10:22.642Z,20.19
2022-08-18T05:11:22.603Z,20.17
2022-08-18T05:12:25.807Z,20.17
2022-08-18T05:13:22.677Z,20.26
2022-08-18T05:14:22.845Z,20.15
2022-08-18T05:15:22.593Z,20.26
2022-08-18T05:16:27.578Z,20.20
2022-08-18T05:17:23.579Z,20.19
2022-08-18T05:18:22.525Z,20.26
2022-08-18T05:19:23.319Z,20.23
2022-08-18T05:20:22.680Z,20.31
2022-08-18T05:21:22.563Z,20.27
2022-08-18T05:22:30.467Z,20.35
2022-08-18T05:23:23.459Z,20.26
2022-08-18T05:24:22.487Z,20.33
2022-08-18T05:25:22.492Z,20.37
2022-08-18T05:26:22.355Z,20.44
2022-08-18T05:27:22.341Z,20.38
2022-08-18T05:28:22.431Z,20.41
2022-08-18T05:29:22.384Z,20.41
2022-08-18T05:30:22.391Z,20.33
2022-08-18T05:31:22.334Z,20.41
2022-08-18T05:32:38.352Z,20.33
2022-08-18T05:33:23.393Z,20.26
2022-08-18T05:34:22.294Z,20.23
2022-08-18T05:35:22.208Z,20.31
2022-08-18T05:36:22.210Z,20.20
2022-08-18T05:37:23.169Z,20.20
2022-08-18T05:38:22.147Z,20.23
2022-08-18T05:39:22.155Z,20.30
2022-08-18T05:40:22.194Z,20.26
2022-08-18T05:41:22.150Z,20.26
2022-08-18T05:42:22.122Z,20.20
2022-08-18T05:43:22.157Z,20.22
2022-08-18T05:44:22.123Z,20.17
2022-08-18T05:45:22.092Z,20.23
2022-08-18T05:46:22.126Z,20.19
2022-08-18T05:47:22.109Z,20.10
2022-08-18T05:48:22.037Z,20.23
2022-08-18T05:49:22.054Z,20.15
2022-08-18T05:50:21.944Z,20.17
2022-08-18T05:51:21.906Z,20.15
2022-08-18T05:52:22.015Z,20.19
2022-08-18T05:53:21.941Z,20.22
2022-08-18T05:54:21.902Z,20.31
2022-08-18T05:55:21.846Z,20.20
2022-08-18T05:56:21.989Z,20.16
2022-08-18T05:57:21.866Z,20.22
2022-08-18T05:58:21.947Z,20.22
2022-08-18T05:59:21.811Z,20.37
2022-08-18T06:00:21.822Z,20.31
2022-08-18T06:01:21.798Z,20.31
2022-08-18T06:02:21.847Z,20.35
2022-08-18T06:03:21.879Z,20.40
2022-08-18T06:04:21.818Z,20.38
2022-08-18T06:05:21.695Z,20.37
2022-08-18T06:06:21.821Z,20.48
2022-08-18T06:07:21.716Z,20.51
2022-08-18T06:08:21.764Z,20.57
2022-08-18T06:09:21.821Z,20.54
2022-08-18T06:10:21.726Z,20.57
2022-08-18T06:11:22.360Z,20.57
2022-08-18T06:12:21.599Z,20.72
2022-08-18T06:13:21.593Z,20.73
2022-08-18T06:14:21.689Z,20.76
2022-08-18T06:15:21.627Z,20.69
2022-08-18T06:16:21.672Z,20.66
2022-08-18T06:17:21.569Z,20.64
2022-08-18T06:18:21.663Z,20.76
2022-08-18T06:19:21.599Z,20.68
2022-08-18T06:20:21.448Z,20.78
2022-08-18T06:21:21.402Z,20.71
2022-08-18T06:22:21.493Z,20.83
2022-08-18T06:23:21.440Z,20.90
2022-08-18T06:24:21.434Z,20.91
2022-08-18T06:25:21.327Z,20.90
2022-08-18T06:26:21.318Z,20.98
2022-08-18T06:27:21.354Z,20.97
2022-08-18T06:28:21.345Z,21.08
2022-08-18T06:29:21.264Z,21.05
2022-08-18T06:30:21.381Z,21.08
2022-08-18T06:31:24.755Z,21.11
2022-08-18T06:32:22.228Z,21.11
2022-08-18T06:33:21.189Z,21.21
2022-08-18T06:34:21.176Z,21.36
2022-08-18T06:35:21.188Z,21.34
2022-08-18T06:36:21.593Z,21.31
2022-08-18T06:37:21.184Z,21.42
2022-08-18T06:38:21.168Z,21.38
2022-08-18T06:39:21.144Z,21.46
2022-08-18T06:40:21.110Z,21.53
2022-08-18T06:41:40.871Z,21.67
2022-08-18T06:42:22.152Z,21.70
2022-08-18T06:43:21.036Z,21.82
2022-08-18T06:44:21.003Z,21.90
2022-08-18T06:45:21.017Z,21.91
2022-08-18T06:46:21.082Z,21.98
2022-08-18T06:47:21.015Z,22.05
2022-08-18T06:48:20.986Z,22.09
2022-08-18T06:49:20.928Z,22.15
2022-08-18T06:50:20.934Z,22.24
2022-08-18T06:51:21.048Z,22.26
2022-08-18T06:52:21.028Z,22.41
2022-08-18T06:53:28.067Z,22.35
2022-08-18T06:54:21.902Z,22.29
2022-08-18T06:55:20.906Z,22.35
2022-08-18T06:56:26.599Z,22.31
2022-08-18T06:57:21.842Z,22.39
2022-08-18T06:58:20.879Z,22.42
2022-08-18T06:59:20.902Z,22.36
2022-08-18T07:00:20.871Z,22.45
2022-08-18T07:01:20.976Z,22.48
2022-08-18T07:02:20.878Z,22.46
2022-08-18T07:03:20.796Z,22.63
2022-08-18T07:04:20.724Z,22.52
2022-08-18T07:05:20.783Z,22.56
2022-08-18T07:06:20.784Z,22.64
2022-08-18T07:07:20.756Z,22.74
2022-08-18T07:08:20.681Z,22.81
2022-08-18T07:09:20.645Z,22.88
2022-08-18T07:10:20.657Z,22.96
2022-08-18T07:11:20.551Z,22.97
2022-08-18T07:12:20.788Z,23.19
2022-08-18T07:13:20.582Z,23.49
2022-08-18T07:14:20.557Z,23.89
2022-08-18T07:15:20.693Z,24.06
2022-08-18T07:16:34.255Z,24.12
2022-08-18T07:17:22.455Z,24.18
2022-08-18T07:18:21.591Z,24.18
2022-08-18T07:19:20.475Z,24.11
2022-08-18T07:20:20.438Z,23.94
2022-08-18T07:21:20.389Z,23.87
2022-08-18T07:22:20.509Z,23.82
2022-08-18T07:23:21.416Z,23.84
2022-08-18T07:24:25.189Z,23.82
2022-08-18T07:25:22.355Z,23.72
2022-08-18T07:26:20.425Z,23.72
2022-08-18T07:27:20.361Z,23.64
2022-08-18T07:28:20.323Z,23.64
2022-08-18T07:29:20.356Z,23.63
2022-08-18T07:30:20.426Z,23.64
2022-08-18T07:31:20.292Z,23.64
2022-08-18T07:32:21.414Z,23.68
2022-08-18T07:33:20.311Z,23.60
2022-08-18T07:34:20.287Z,23.64
2022-08-18T07:35:20.251Z,23.71
2022-08-18T07:36:20.198Z,23.78
2022-08-18T07:37:22.913Z,23.72
2022-08-18T07:38:42.042Z,23.84
2022-08-18T07:39:22.209Z,23.99
2022-08-18T07:40:20.234Z,24.09
2022-08-18T07:41:20.127Z,24.23
2022-08-18T07:42:37.125Z,24.33
2022-08-18T07:43:21.156Z,24.24
2022-08-18T07:44:20.076Z,24.26
2022-08-18T07:45:22.282Z,24.18
2022-08-18T07:46:20.143Z,24.19
2022-08-18T07:47:20.027Z,24.24
2022-08-18T07:48:37.712Z,24.27
2022-08-18T07:49:22.657Z,24.26
2022-08-18T07:50:55.199Z,24.33
2022-08-18T07:51:22.209Z,24.24
2022-08-18T07:52:36.141Z,24.31
2022-08-18T07:53:20.947Z,24.18
2022-08-18T07:54:45.381Z,24.30
2022-08-18T07:55:21.922Z,24.18
2022-08-18T07:56:19.865Z,24.24
2022-08-18T07:57:20.418Z,24.12
2022-08-18T07:58:20.851Z,24.11
2022-08-18T07:59:19.864Z,24.05
2022-08-18T08:00:35.177Z,24.08
2022-08-18T08:01:21.878Z,24.05
2022-08-18T08:02:20.036Z,24.04
2022-08-18T08:03:19.759Z,24.08
2022-08-18T08:04:25.082Z,24.05
2022-08-18T08:05:20.782Z,24.05
2022-08-18T08:06:19.682Z,23.94
2022-08-18T08:07:24.420Z,23.87
2022-08-18T08:08:25.522Z,23.79
2022-08-18T08:09:19.665Z,23.77
2022-08-18T08:10:19.813Z,23.71
2022-08-18T08:11:19.608Z,23.67
2022-08-18T08:12:19.678Z,23.82
2022-08-18T08:13:37.261Z,23.67
2022-08-18T08:14:26.165Z,23.71
2022-08-18T08:15:26.834Z,23.78
2022-08-18T08:16:20.539Z,23.75
2022-08-18T08:17:19.593Z,23.81
2022-08-18T08:18:19.637Z,23.87
2022-08-18T08:19:31.463Z,23.75
2022-08-18T08:20:21.468Z,23.86
2022-08-18T08:21:19.484Z,23.84
2022-08-18T08:22:19.430Z,23.82
2022-08-18T08:23:19.514Z,23.90
2022-08-18T08:24:19.477Z,23.89
2022-08-18T08:25:42.788Z,23.90
2022-08-18T08:26:21.443Z,24.08
2022-08-18T08:27:19.449Z,24.18
2022-08-18T08:28:19.482Z,24.41
2022-08-18T08:29:19.289Z,24.80
2022-08-18T08:30:19.474Z,24.94
2022-08-18T08:31:36.793Z,25.05
2022-08-18T08:32:21.345Z,25.08
2022-08-18T08:33:19.344Z,25.12
2022-08-18T08:34:19.235Z,25.22
2022-08-18T08:35:48.923Z,25.35
2022-08-18T08:36:20.229Z,25.35
2022-08-18T08:37:19.214Z,25.23
2022-08-18T08:38:40.021Z,25.24
2022-08-18T08:39:21.241Z,25.20
2022-08-18T08:40:19.273Z,25.34
2022-08-18T08:41:19.195Z,25.30
2022-08-18T08:42:31.743Z,25.30
2022-08-18T08:43:20.235Z,25.19
2022-08-18T08:44:19.091Z,25.11
2022-08-18T08:45:19.073Z,25.08
2022-08-18T08:46:19.192Z,25.23
2022-08-18T08:47:23.244Z,25.27
2022-08-18T08:48:19.068Z,25.44
2022-08-18T08:49:19.009Z,25.36
2022-08-18T08:50:19.086Z,25.45
2022-08-18T08:51:19.024Z,25.36
2022-08-18T08:52:19.258Z,25.39
2022-08-18T08:53:19.950Z,25.29
2022-08-18T08:54:19.032Z,25.34
2022-08-18T08:55:18.908Z,25.26
2022-08-18T08:56:18.950Z,25.26
2022-08-18T08:57:18.840Z,25.35
2022-08-18T08:58:18.963Z,25.23
2022-08-18T08:59:18.857Z,25.27
2022-08-18T09:00:18.896Z,25.27
2022-08-18T09:01:18.946Z,25.22
2022-08-18T09:02:44.376Z,25.27
2022-08-18T09:03:30.708Z,25.42
2022-08-18T09:04:19.770Z,25.31
2022-08-18T09:05:18.767Z,25.38
2022-08-18T09:06:20.495Z,25.35
2022-08-18T09:07:18.783Z,25.44
2022-08-18T09:08:18.660Z,25.42
2022-08-18T09:09:18.646Z,25.48
2022-08-18T09:10:18.726Z,25.48
2022-08-18T09:11:18.634Z,25.49
2022-08-18T09:12:18.592Z,25.51
2022-08-18T09:13:18.619Z,25.44
2022-08-18T09:14:18.603Z,25.42
2022-08-18T09:15:18.585Z,25.53
2022-08-18T09:16:18.716Z,25.44
2022-08-18T09:17:18.502Z,25.42
2022-08-18T09:18:18.576Z,25.39
2022-08-18T09:19:18.552Z,25.31
2022-08-18T09:20:18.451Z,25.27
2022-08-18T09:21:19.528Z,25.24
2022-08-18T09:22:19.273Z,25.29
2022-08-18T09:23:18.467Z,25.41
2022-08-18T09:24:18.499Z,25.29
2022-08-18T09:25:18.479Z,25.34
2022-08-18T09:26:18.506Z,25.23
2022-08-18T09:27:18.435Z,25.27
2022-08-18T09:28:18.380Z,25.17
2022-08-18T09:29:18.473Z,25.12
2022-08-18T09:30:18.299Z,25.19
2022-08-18T09:31:19.606Z,25.08
2022-08-18T09:32:18.347Z,25.12
2022-08-18T09:33:18.726Z,25.05
2022-08-18T09:34:18.237Z,25.02
2022-08-18T09:35:18.390Z,24.94
2022-08-18T09:36:19.934Z,24.94
2022-08-18T09:37:18.177Z,24.94
2022-08-18T09:38:20.722Z,24.94
2022-08-18T09:39:18.542Z,24.98
2022-08-18T09:40:18.377Z,24.98
2022-08-18T09:41:18.334Z,24.93
2022-08-18T09:43:20.213Z,25.02
2022-08-18T09:44:26.602Z,24.90
2022-08-18T09:45:19.157Z,24.98
2022-08-18T09:46:18.116Z,24.83
2022-08-18T09:47:18.059Z,24.82
2022-08-18T09:48:25.082Z,24.67
2022-08-18T09:49:19.240Z,24.55
2022-08-18T09:50:27.097Z,24.63
2022-08-18T09:51:20.110Z,24.49
2022-08-18T09:52:18.139Z,24.39
2022-08-18T09:53:17.951Z,24.29
2022-08-18T09:54:20.951Z,24.23
2022-08-18T09:55:17.908Z,24.29
2022-08-18T09:56:19.722Z,24.26
2022-08-18T09:57:19.429Z,24.19
2022-08-18T09:58:17.922Z,24.30
2022-08-18T09:59:18.003Z,24.21
2022-08-18T10:00:17.917Z,24.14
2022-08-18T10:01:17.858Z,23.96
2022-08-18T10:02:18.897Z,24.02
2022-08-18T10:04:21.490Z,24.08
2022-08-18T10:05:17.802Z,24.11
2022-08-18T10:06:17.757Z,24.12
2022-08-18T10:07:17.836Z,24.16
2022-08-18T10:09:27.455Z,24.11
2022-08-18T10:11:00.571Z,24.14
2022-08-18T10:11:20.574Z,24.11
2022-08-18T10:12:17.697Z,24.14
2022-08-18T10:13:17.737Z,24.16
2022-08-18T10:14:18.320Z,24.19
2022-08-18T10:15:26.983Z,24.29
2022-08-18T10:16:18.650Z,24.16
2022-08-18T10:17:22.123Z,24.33
2022-08-18T10:18:18.537Z,24.41
2022-08-18T10:19:17.577Z,24.42
2022-08-18T10:20:25.980Z,24.52
2022-08-18T10:22:18.565Z,24.71
2022-08-18T10:23:18.446Z,24.74
2022-08-18T10:24:35.329Z,24.71
2022-08-18T10:25:23.053Z,24.64
2022-08-18T10:26:18.490Z,24.74
2022-08-18T10:27:17.515Z,24.77
2022-08-18T10:28:17.461Z,24.71
2022-08-18T10:29:17.402Z,24.82
2022-08-18T10:30:17.393Z,24.86
2022-08-18T10:31:17.458Z,24.82
2022-08-18T10:32:17.543Z,24.75
2022-08-18T10:34:19.610Z,24.84
2022-08-18T10:35:17.367Z,24.98
2022-08-18T10:36:17.345Z,24.90
2022-08-18T10:37:17.284Z,24.89
2022-08-18T10:38:17.270Z,24.99
2022-08-18T10:39:17.315Z,24.97
2022-08-18T10:40:21.140Z,25.04
2022-08-18T10:41:17.263Z,24.93
2022-08-18T10:42:17.247Z,25.04
2022-08-18T10:44:28.778Z,25.34
2022-08-18T10:45:24.525Z,25.26
2022-08-18T10:46:25.427Z,25.41
2022-08-18T10:47:19.094Z,25.53
2022-08-18T10:48:18.219Z,25.69
2022-08-18T10:49:17.398Z,25.79
2022-08-18T10:50:17.140Z,25.72
2022-08-18T10:51:21.679Z,25.81
2022-08-18T10:52:18.226Z,25.83
2022-08-18T10:53:39.541Z,25.91
2022-08-18T10:54:19.058Z,26.13
2022-08-18T10:55:17.158Z,26.34
2022-08-18T10:56:17.065Z,26.50
2022-08-18T10:57:17.949Z,26.68
2022-08-18T10:58:16.938Z,26.83
2022-08-18T10:59:17.308Z,26.78
2022-08-18T11:00:16.963Z,26.93
2022-08-18T11:01:16.966Z,27.01
2022-08-18T11:02:16.927Z,27.05
2022-08-18T11:05:17.776Z,27.42
2022-08-18T11:06:18.274Z,27.39
2022-08-18T11:07:18.252Z,27.52
2022-08-18T11:09:17.775Z,27.77
2022-08-18T11:11:38.688Z,27.87
2022-08-18T11:12:18.750Z,27.91
2022-08-18T11:13:16.702Z,28.14
2022-08-18T11:14:16.754Z,28.13
2022-08-18T11:15:23.091Z,28.21
2022-08-18T11:16:17.691Z,28.27
2022-08-18T11:17:16.653Z,28.35
2022-08-18T11:18:16.682Z,28.46
2022-08-18T11:19:16.753Z,28.46
2022-08-18T11:21:17.567Z,28.42
2022-08-18T11:22:16.507Z,28.48
2022-08-18T11:23:17.503Z,28.36
2022-08-18T11:24:16.478Z,28.42
2022-08-18T11:25:16.451Z,28.45
2022-08-18T11:26:18.322Z,28.35
2022-08-18T11:27:16.472Z,28.27
2022-08-18T11:28:18.400Z,28.30
2022-08-18T11:29:16.453Z,28.35
2022-08-18T11:30:17.312Z,28.27
2022-08-18T11:31:16.570Z,28.38
2022-08-18T11:32:17.812Z,28.33
2022-08-18T11:33:23.160Z,28.28
2022-08-18T11:34:19.892Z,28.25
2022-08-18T11:35:18.530Z,28.06
2022-08-18T11:36:16.295Z,28.02
2022-08-18T11:37:16.527Z,27.88
2022-08-18T11:38:20.755Z,27.83
2022-08-18T11:39:17.362Z,27.72
2022-08-18T11:40:28.219Z,27.69
2022-08-18T11:41:18.478Z,27.55
2022-08-18T11:42:25.162Z,27.38
2022-08-18T11:43:17.287Z,27.34
2022-08-18T11:44:16.216Z,27.31
2022-08-18T11:45:16.222Z,27.39
2022-08-18T11:46:16.901Z,27.24
2022-08-18T11:47:16.200Z,27.33
2022-08-18T11:48:16.099Z,27.33
2022-08-18T11:49:17.183Z,27.20
2022-08-18T11:50:17.133Z,27.21
2022-08-18T11:51:16.117Z,27.25
2022-08-18T11:52:16.291Z,27.24
2022-08-18T11:53:17.131Z,27.09
2022-08-18T11:54:16.090Z,27.13
2022-08-18T11:55:24.202Z,27.12
2022-08-18T11:56:17.040Z,27.15
2022-08-18T11:57:16.042Z,27.13
2022-08-18T11:58:15.937Z,27.11
2022-08-18T11:59:15.977Z,27.02
2022-08-18T12:00:24.180Z,26.97
2022-08-18T12:01:16.980Z,27.06
2022-08-18T12:02:15.926Z,27.06
2022-08-18T12:03:15.852Z,27.02
2022-08-18T12:04:15.962Z,26.88
2022-08-18T12:05:15.965Z,27.01
2022-08-18T12:06:19.398Z,27.09
2022-08-18T12:07:20.327Z,26.97
2022-08-18T12:08:41.625Z,26.96
2022-08-18T12:09:36.979Z,26.87
2022-08-18T12:10:19.230Z,27.05
2022-08-18T12:11:26.775Z,26.97
2022-08-18T12:12:16.839Z,26.97
2022-08-18T12:13:15.714Z,26.98
2022-08-18T12:14:30.113Z,27.03
2022-08-18T12:15:23.897Z,26.90
2022-08-18T12:16:17.770Z,26.98
2022-08-18T12:17:15.732Z,26.96
2022-08-18T12:18:25.911Z,26.97
2022-08-18T12:19:16.726Z,26.93
2022-08-18T12:20:15.654Z,26.97
2022-08-18T12:21:15.727Z,27.02
2022-08-18T12:22:15.763Z,26.96
2022-08-18T12:23:15.587Z,26.98
2022-08-18T12:24:15.535Z,27.03
2022-08-18T12:25:15.578Z,26.97
2022-08-18T12:26:27.331Z,27.05
2022-08-18T12:27:21.714Z,26.93
2022-08-18T12:28:16.531Z,26.88
2022-08-18T12:29:15.462Z,26.93
2022-08-18T12:30:16.575Z,26.91
2022-08-18T12:31:17.295Z,26.87
2022-08-18T12:32:17.883Z,26.73
2022-08-18T12:33:16.705Z,26.69
2022-08-18T12:34:16.588Z,26.57
2022-08-18T12:35:15.360Z,26.54
2022-08-18T12:36:15.831Z,26.46
2022-08-18T12:37:54.390Z,26.38
2022-08-18T12:38:17.429Z,26.31
2022-08-18T12:39:15.416Z,26.17
2022-08-18T12:40:15.378Z,26.23
2022-08-18T12:41:17.489Z,26.19
2022-08-18T12:42:16.361Z,26.16
2022-08-18T12:43:15.301Z,26.19
2022-08-18T12:44:15.265Z,26.20
2022-08-18T12:45:15.536Z,26.24
2022-08-18T12:46:15.235Z,26.12
2022-08-18T12:47:15.311Z,26.17
2022-08-18T12:48:15.260Z,26.16
2022-08-18T12:49:15.182Z,26.13
2022-08-18T12:50:15.263Z,26.20
2022-08-18T12:51:15.203Z,26.21
2022-08-18T12:52:15.255Z,26.20
2022-08-18T12:53:15.265Z,26.16
2022-08-18T12:54:15.119Z,26.21
2022-08-18T12:55:22.046Z,26.28
2022-08-18T12:56:16.156Z,26.32
2022-08-18T12:57:21.904Z,26.41
2022-08-18T12:58:17.044Z,26.32
2022-08-18T12:59:15.027Z,26.41
2022-08-18T13:00:16.862Z,26.35
2022-08-18T13:01:17.642Z,26.31
2022-08-18T13:02:14.974Z,26.31
2022-08-18T13:03:14.973Z,26.28